Atlantic Elm — 9HA3054 — position and weather

sailwx.info

Track history (hours):
 
Tides and Currents Weather Stations Pressure Air Temp Water Temp Dewpoint Dewpoint Depression Visibility Wind Speed Wind Dir Waves Ship Positions

Atlantic Elm

Last reported at 2014-Dec-18 17:31 UTC. Time now 2014-Dec-18 18:20 UTC.
Position N 38°02' E 023°32'.

Length 190 m; draft 8.8 m.

Type: Cargo ship. MMSI: 229081000.

Date/timePositionNaut miles runAvg speedWind from/ knotsBaromVisibWave heightAir tempDewpointWater temp
2014-Dec-18 17:31N 38°02' E 023°32'0 0.0
2014-Dec-18 16:31N 38°02' E 023°32'0 0.0
2014-Dec-18 15:31N 38°02' E 023°32'0 0.0
2014-Dec-18 14:28N 38°02' E 023°32'0 0.0
2014-Dec-18 13:32N 38°02' E 023°32'0 0.0
2014-Dec-18 12:32N 38°02' E 023°32'0 0.0
2014-Dec-18 11:31N 38°03' E 023°32'0 0.0
2014-Dec-18 10:28N 38°02' E 023°32'0 0.0
2014-Dec-18 09:31N 38°02' E 023°32'0 0.0
2014-Dec-18 08:31N 38°02' E 023°32'0 0.0
2014-Dec-18 07:31N 38°02' E 023°32'0 0.0
2014-Dec-18 06:29N 38°02' E 023°32'0 0.0
2014-Dec-18 05:31N 38°02' E 023°32'0 0.0
2014-Dec-18 04:31N 38°02' E 023°32'0 0.0
2014-Dec-18 03:31N 38°02' E 023°32'0 0.0
2014-Dec-18 02:31N 38°02' E 023°32'0 0.0
2014-Dec-18 01:31N 38°02' E 023°32'0 0.0
2014-Dec-18 00:31N 38°02' E 023°32'0 0.0
2014-Dec-17 23:33N 38°02' E 023°32'0 0.0
2014-Dec-17 22:32N 38°02' E 023°32'0 0.0
2014-Dec-17 21:31N 38°02' E 023°32'0 0.0
2014-Dec-17 20:31N 38°02' E 023°32'0 0.0
2014-Dec-17 19:31N 38°02' E 023°32'0 0.0
2014-Dec-17 18:31N 38°02' E 023°32'0 0.0
2014-Dec-17 17:28N 38°02' E 023°32'0 0.0
2014-Dec-17 16:28N 38°02' E 023°32'0 0.0
2014-Dec-17 15:31N 38°02' E 023°32'0 0.0
2014-Dec-17 14:28N 38°02' E 023°32'0 0.0
2014-Dec-16 12:04N 38°02' E 023°32'0 0.0
2014-Dec-16 11:28N 38°02' E 023°32'0 0.0
2014-Dec-16 10:31N 38°02' E 023°32'0 0.0
2014-Dec-16 09:31N 38°02' E 023°32'0 0.0
2014-Dec-16 08:31N 38°02' E 023°32'0 0.0
2014-Dec-16 07:31N 38°02' E 023°32'0 0.2
2014-Dec-16 06:33N 38°02' E 023°32'7 7.5
2014-Dec-16 05:33N 37°55' E 023°35'3 2.7
2014-Dec-16 04:33N 37°54' E 023°38'5 5.3
2014-Dec-16 03:32N 37°49' E 023°40'9 9.2
2014-Dec-16 02:33N 37°41' E 023°45'15 1.8
2014-Dec-15 18:04N 37°25' E 023°44'0 0.6
2014-Dec-15 17:28N 37°25' E 023°45'1 0.6
2014-Dec-15 16:22N 37°25' E 023°46'1 0.6
2014-Dec-15 15:22N 37°25' E 023°46'2 2.1
2014-Dec-15 14:32N 37°24' E 023°45'1212.2
2014-Dec-15 13:33N 37°12' E 023°45'1211.9
2014-Dec-15 12:31N 36°59' E 023°43'5 5.6
2014-Dec-15 11:33N 36°54' E 023°41'1010.2
2014-Dec-15 10:33N 36°44' E 023°44'1212.4
2014-Dec-15 09:33N 36°34' E 023°35'1312.6
2014-Dec-15 08:33N 36°23' E 023°27'8110.9
2014-Dec-15 01:06N 36°13' E 021°47'713.0
2014-Dec-15 00:33N 36°15' E 021°39'  
Track history (hours):
 
Tides and Currents Weather Stations Pressure Air Temp Water Temp Dewpoint Dewpoint Depression Visibility Wind Speed Wind Dir Waves Ship Positions

Atlantic Elm

Last reported at 2014-Dec-18 17:31 UTC. Time now 2014-Dec-18 18:20 UTC.
Position N 38°02' E 023°32'.

Length 190 m; draft 8.8 m.

Type: Cargo ship. MMSI: 229081000.

Date/timePositionNaut miles runAvg speedWind from/ knotsBaromVisibWave heightAir tempDewpointWater temp
2014-Dec-18 17:31N 38°02' E 023°32'0 0.0
2014-Dec-18 16:31N 38°02' E 023°32'0 0.0
2014-Dec-18 15:31N 38°02' E 023°32'0 0.0
2014-Dec-18 14:28N 38°02' E 023°32'0 0.0
2014-Dec-18 13:32N 38°02' E 023°32'0 0.0
2014-Dec-18 12:32N 38°02' E 023°32'0 0.0
2014-Dec-18 11:31N 38°03' E 023°32'0 0.0
2014-Dec-18 10:28N 38°02' E 023°32'0 0.0
2014-Dec-18 09:31N 38°02' E 023°32'0 0.0
2014-Dec-18 08:31N 38°02' E 023°32'0 0.0
2014-Dec-18 07:31N 38°02' E 023°32'0 0.0
2014-Dec-18 06:29N 38°02' E 023°32'0 0.0
2014-Dec-18 05:31N 38°02' E 023°32'0 0.0
2014-Dec-18 04:31N 38°02' E 023°32'0 0.0
2014-Dec-18 03:31N 38°02' E 023°32'0 0.0
2014-Dec-18 02:31N 38°02' E 023°32'0 0.0
2014-Dec-18 01:31N 38°02' E 023°32'0 0.0
2014-Dec-18 00:31N 38°02' E 023°32'0 0.0
2014-Dec-17 23:33N 38°02' E 023°32'0 0.0
2014-Dec-17 22:32N 38°02' E 023°32'0 0.0
2014-Dec-17 21:31N 38°02' E 023°32'0 0.0
2014-Dec-17 20:31N 38°02' E 023°32'0 0.0
2014-Dec-17 19:31N 38°02' E 023°32'0 0.0
2014-Dec-17 18:31N 38°02' E 023°32'0 0.0
2014-Dec-17 17:28N 38°02' E 023°32'0 0.0
2014-Dec-17 16:28N 38°02' E 023°32'0 0.0
2014-Dec-17 15:31N 38°02' E 023°32'0 0.0
2014-Dec-17 14:28N 38°02' E 023°32'0 0.0
2014-Dec-16 12:04N 38°02' E 023°32'0 0.0
2014-Dec-16 11:28N 38°02' E 023°32'0 0.0
2014-Dec-16 10:31N 38°02' E 023°32'0 0.0
2014-Dec-16 09:31N 38°02' E 023°32'0 0.0
2014-Dec-16 08:31N 38°02' E 023°32'0 0.0
2014-Dec-16 07:31N 38°02' E 023°32'0 0.2
2014-Dec-16 06:33N 38°02' E 023°32'7 7.5
2014-Dec-16 05:33N 37°55' E 023°35'3 2.7
2014-Dec-16 04:33N 37°54' E 023°38'5 5.3
2014-Dec-16 03:32N 37°49' E 023°40'9 9.2
2014-Dec-16 02:33N 37°41' E 023°45'15 1.8
2014-Dec-15 18:04N 37°25' E 023°44'0 0.6
2014-Dec-15 17:28N 37°25' E 023°45'1 0.6
2014-Dec-15 16:22N 37°25' E 023°46'1 0.6
2014-Dec-15 15:22N 37°25' E 023°46'2 2.1
2014-Dec-15 14:32N 37°24' E 023°45'1212.2
2014-Dec-15 13:33N 37°12' E 023°45'1211.9
2014-Dec-15 12:31N 36°59' E 023°43'5 5.6
2014-Dec-15 11:33N 36°54' E 023°41'1010.2
2014-Dec-15 10:33N 36°44' E 023°44'1212.4
2014-Dec-15 09:33N 36°34' E 023°35'1312.6
2014-Dec-15 08:33N 36°23' E 023°27'8110.9
2014-Dec-15 01:06N 36°13' E 021°47'713.0
2014-Dec-15 00:33N 36°15' E 021°39'  

Dump ship's entire track history